sensor_id;sensor_type;location;lat;lon;timestamp;temperature;humidity
44729;DHT22;30457;53.590;9.922;2023-04-03T00:03:40;6.30;49.50
44729;DHT22;30457;53.590;9.922;2023-04-03T00:08:07;6.30;49.50
44729;DHT22;30457;53.590;9.922;2023-04-03T00:12:34;6.30;49.50
44729;DHT22;30457;53.590;9.922;2023-04-03T00:17:00;6.20;49.60
44729;DHT22;30457;53.590;9.922;2023-04-03T00:21:25;6.20;49.70
44729;DHT22;30457;53.590;9.922;2023-04-03T00:25:52;6.10;49.70
44729;DHT22;30457;53.590;9.922;2023-04-03T00:30:20;6.10;49.80
44729;DHT22;30457;53.590;9.922;2023-04-03T00:34:46;6.00;49.80
44729;DHT22;30457;53.590;9.922;2023-04-03T00:39:12;6.00;49.80
44729;DHT22;30457;53.590;9.922;2023-04-03T00:43:37;5.90;49.90
44729;DHT22;30457;53.590;9.922;2023-04-03T00:48:05;5.90;49.90
44729;DHT22;30457;53.590;9.922;2023-04-03T00:52:31;5.80;50.00
44729;DHT22;30457;53.590;9.922;2023-04-03T00:56:57;5.80;50.50
44729;DHT22;30457;53.590;9.922;2023-04-03T01:01:25;5.70;50.00
44729;DHT22;30457;53.590;9.922;2023-04-03T01:05:51;5.70;50.10
44729;DHT22;30457;53.590;9.922;2023-04-03T01:10:18;5.60;50.10
44729;DHT22;30457;53.590;9.922;2023-04-03T01:14:46;5.60;50.20
44729;DHT22;30457;53.590;9.922;2023-04-03T01:19:15;5.60;50.30
44729;DHT22;30457;53.590;9.922;2023-04-03T01:24:05;5.60;50.40
44729;DHT22;30457;53.590;9.922;2023-04-03T01:28:36;5.50;50.60
44729;DHT22;30457;53.590;9.922;2023-04-03T01:33:02;5.50;50.50
44729;DHT22;30457;53.590;9.922;2023-04-03T01:37:28;5.40;50.60
44729;DHT22;30457;53.590;9.922;2023-04-03T01:41:54;5.40;50.70
44729;DHT22;30457;53.590;9.922;2023-04-03T01:46:27;5.40;50.70
44729;DHT22;30457;53.590;9.922;2023-04-03T01:50:53;5.40;50.60
44729;DHT22;30457;53.590;9.922;2023-04-03T01:55:20;5.30;50.80
44729;DHT22;30457;53.590;9.922;2023-04-03T01:59:45;5.30;51.00
44729;DHT22;30457;53.590;9.922;2023-04-03T02:04:12;5.30;51.10
44729;DHT22;30457;53.590;9.922;2023-04-03T02:08:37;5.20;51.00
44729;DHT22;30457;53.590;9.922;2023-04-03T02:13:05;5.20;51.00
44729;DHT22;30457;53.590;9.922;2023-04-03T02:17:31;5.20;51.10
44729;DHT22;30457;53.590;9.922;2023-04-03T02:21:56;5.10;51.10
44729;DHT22;30457;53.590;9.922;2023-04-03T02:26:22;5.10;51.40
44729;DHT22;30457;53.590;9.922;2023-04-03T02:30:47;5.10;51.60
44729;DHT22;30457;53.590;9.922;2023-04-03T02:35:14;5.10;51.70
44729;DHT22;30457;53.590;9.922;2023-04-03T02:39:40;5.00;51.70
44729;DHT22;30457;53.590;9.922;2023-04-03T02:44:09;5.00;51.60
44729;DHT22;30457;53.590;9.922;2023-04-03T02:48:36;5.00;51.60
44729;DHT22;30457;53.590;9.922;2023-04-03T02:53:02;5.00;51.50
44729;DHT22;30457;53.590;9.922;2023-04-03T02:57:28;4.90;51.50
44729;DHT22;30457;53.590;9.922;2023-04-03T03:01:53;4.90;51.50
44729;DHT22;30457;53.590;9.922;2023-04-03T03:06:20;4.90;51.40
44729;DHT22;30457;53.590;9.922;2023-04-03T03:10:46;4.80;51.50
44729;DHT22;30457;53.590;9.922;2023-04-03T03:15:12;4.80;51.60
44729;DHT22;30457;53.590;9.922;2023-04-03T03:19:37;4.80;51.70
44729;DHT22;30457;53.590;9.922;2023-04-03T03:24:03;4.70;51.70
44729;DHT22;30457;53.590;9.922;2023-04-03T03:28:29;4.70;51.90
44729;DHT22;30457;53.590;9.922;2023-04-03T03:32:55;4.70;52.00
44729;DHT22;30457;53.590;9.922;2023-04-03T03:37:20;4.70;52.00
44729;DHT22;30457;53.590;9.922;2023-04-03T03:41:46;4.60;51.90
44729;DHT22;30457;53.590;9.922;2023-04-03T03:46:13;4.60;51.90
44729;DHT22;30457;53.590;9.922;2023-04-03T03:50:39;4.50;51.80
44729;DHT22;30457;53.590;9.922;2023-04-03T03:55:05;4.50;51.90
44729;DHT22;30457;53.590;9.922;2023-04-03T03:59:32;4.50;52.00
44729;DHT22;30457;53.590;9.922;2023-04-03T04:03:58;4.50;52.10
44729;DHT22;30457;53.590;9.922;2023-04-03T04:08:29;4.40;52.10
44729;DHT22;30457;53.590;9.922;2023-04-03T04:12:55;4.40;52.10
44729;DHT22;30457;53.590;9.922;2023-04-03T04:17:23;4.40;52.20
44729;DHT22;30457;53.590;9.922;2023-04-03T04:21:50;4.30;52.20
44729;DHT22;30457;53.590;9.922;2023-04-03T04:26:16;4.30;52.40
44729;DHT22;30457;53.590;9.922;2023-04-03T04:30:42;4.30;52.40
44729;DHT22;30457;53.590;9.922;2023-04-03T04:35:09;4.20;52.40
44729;DHT22;30457;53.590;9.922;2023-04-03T04:39:39;4.20;52.40
44729;DHT22;30457;53.590;9.922;2023-04-03T04:44:05;4.20;52.50
44729;DHT22;30457;53.590;9.922;2023-04-03T04:48:31;4.20;52.60
44729;DHT22;30457;53.590;9.922;2023-04-03T04:52:57;4.20;52.70
44729;DHT22;30457;53.590;9.922;2023-04-03T04:57:23;4.20;52.70
44729;DHT22;30457;53.590;9.922;2023-04-03T05:01:49;4.20;52.70
44729;DHT22;30457;53.590;9.922;2023-04-03T05:06:16;4.10;52.70
44729;DHT22;30457;53.590;9.922;2023-04-03T05:10:41;4.10;52.70
44729;DHT22;30457;53.590;9.922;2023-04-03T05:15:09;4.10;52.80
44729;DHT22;30457;53.590;9.922;2023-04-03T05:19:35;4.10;52.80
44729;DHT22;30457;53.590;9.922;2023-04-03T05:24:02;4.10;52.90
44729;DHT22;30457;53.590;9.922;2023-04-03T05:28:30;4.10;53.10
44729;DHT22;30457;53.590;9.922;2023-04-03T05:32:58;4.10;53.20
44729;DHT22;30457;53.590;9.922;2023-04-03T05:37:35;4.10;53.30
44729;DHT22;30457;53.590;9.922;2023-04-03T05:42:01;4.10;53.40
44729;DHT22;30457;53.590;9.922;2023-04-03T05:46:27;4.20;53.60
44729;DHT22;30457;53.590;9.922;2023-04-03T05:50:55;4.20;53.80
44729;DHT22;30457;53.590;9.922;2023-04-03T05:55:23;4.30;54.10
44729;DHT22;30457;53.590;9.922;2023-04-03T05:59:49;4.40;54.20
44729;DHT22;30457;53.590;9.922;2023-04-03T06:04:15;4.50;54.20
44729;DHT22;30457;53.590;9.922;2023-04-03T06:08:41;4.60;54.40
44729;DHT22;30457;53.590;9.922;2023-04-03T06:13:07;4.70;54.40
44729;DHT22;30457;53.590;9.922;2023-04-03T06:17:33;4.90;54.30
44729;DHT22;30457;53.590;9.922;2023-04-03T06:21:58;5.00;54.30
44729;DHT22;30457;53.590;9.922;2023-04-03T06:26:24;5.10;54.30
44729;DHT22;30457;53.590;9.922;2023-04-03T06:30:50;5.30;54.30
44729;DHT22;30457;53.590;9.922;2023-04-03T06:35:15;5.40;55.20
44729;DHT22;30457;53.590;9.922;2023-04-03T06:39:41;5.60;54.60
44729;DHT22;30457;53.590;9.922;2023-04-03T06:44:07;5.80;54.60
44729;DHT22;30457;53.590;9.922;2023-04-03T06:48:36;5.90;54.10
44729;DHT22;30457;53.590;9.922;2023-04-03T06:53:01;6.10;53.80
44729;DHT22;30457;53.590;9.922;2023-04-03T06:57:27;6.20;53.60
44729;DHT22;30457;53.590;9.922;2023-04-03T07:01:53;6.30;53.60
44729;DHT22;30457;53.590;9.922;2023-04-03T07:06:19;6.50;53.60
44729;DHT22;30457;53.590;9.922;2023-04-03T07:10:45;6.60;53.70
44729;DHT22;30457;53.590;9.922;2023-04-03T07:15:11;6.80;53.70
44729;DHT22;30457;53.590;9.922;2023-04-03T07:19:38;7.00;53.80
44729;DHT22;30457;53.590;9.922;2023-04-03T07:24:04;7.20;53.40
44729;DHT22;30457;53.590;9.922;2023-04-03T07:28:30;7.40;52.90
44729;DHT22;30457;53.590;9.922;2023-04-03T07:32:55;7.60;52.50
44729;DHT22;30457;53.590;9.922;2023-04-03T07:37:21;7.70;52.30
44729;DHT22;30457;53.590;9.922;2023-04-03T07:41:47;7.90;52.10
44729;DHT22;30457;53.590;9.922;2023-04-03T07:46:13;8.10;52.20
44729;DHT22;30457;53.590;9.922;2023-04-03T07:50:42;8.30;51.90
44729;DHT22;30457;53.590;9.922;2023-04-03T07:55:09;8.50;51.50
44729;DHT22;30457;53.590;9.922;2023-04-03T07:59:34;8.80;51.60
44729;DHT22;30457;53.590;9.922;2023-04-03T08:04:01;9.00;51.40
44729;DHT22;30457;53.590;9.922;2023-04-03T08:08:26;9.30;51.30
44729;DHT22;30457;53.590;9.922;2023-04-03T08:12:55;9.50;50.70
44729;DHT22;30457;53.590;9.922;2023-04-03T08:17:20;9.70;50.30
44729;DHT22;30457;53.590;9.922;2023-04-03T08:21:46;10.00;49.60
44729;DHT22;30457;53.590;9.922;2023-04-03T08:26:15;10.20;48.80
44729;DHT22;30457;53.590;9.922;2023-04-03T08:30:42;10.30;48.30
44729;DHT22;30457;53.590;9.922;2023-04-03T08:35:08;10.50;48.00
44729;DHT22;30457;53.590;9.922;2023-04-03T08:39:33;10.60;47.30
44729;DHT22;30457;53.590;9.922;2023-04-03T08:48:49;11.00;46.50
44729;DHT22;30457;53.590;9.922;2023-04-03T08:53:19;11.20;45.80
44729;DHT22;30457;53.590;9.922;2023-04-03T08:57:47;11.40;45.40
44729;DHT22;30457;53.590;9.922;2023-04-03T09:02:32;11.50;45.30
44729;DHT22;30457;53.590;9.922;2023-04-03T09:07:07;11.70;44.30
44729;DHT22;30457;53.590;9.922;2023-04-03T09:25:41;12.50;42.20
44729;DHT22;30457;53.590;9.922;2023-04-03T09:30:16;12.70;43.30
44729;DHT22;30457;53.590;9.922;2023-04-03T09:34:43;12.80;42.00
44729;DHT22;30457;53.590;9.922;2023-04-03T09:39:13;12.90;41.60
44729;DHT22;30457;53.590;9.922;2023-04-03T09:43:52;12.90;40.20
44729;DHT22;30457;53.590;9.922;2023-04-03T09:48:24;12.90;40.20
44729;DHT22;30457;53.590;9.922;2023-04-03T09:52:51;12.90;39.70
44729;DHT22;30457;53.590;9.922;2023-04-03T09:57:17;13.00;40.00
44729;DHT22;30457;53.590;9.922;2023-04-03T10:01:58;13.00;39.80
44729;DHT22;30457;53.590;9.922;2023-04-03T10:06:24;13.20;39.00
44729;DHT22;30457;53.590;9.922;2023-04-03T10:11:10;13.50;39.60
44729;DHT22;30457;53.590;9.922;2023-04-03T10:15:45;13.70;38.90
44729;DHT22;30457;53.590;9.922;2023-04-03T10:20:50;13.80;37.60
44729;DHT22;30457;53.590;9.922;2023-04-03T10:25:23;14.00;37.60
44729;DHT22;30457;53.590;9.922;2023-04-03T10:34:39;14.10;36.20
44729;DHT22;30457;53.590;9.922;2023-04-03T10:39:32;14.10;37.10
44729;DHT22;30457;53.590;9.922;2023-04-03T10:49:36;14.20;36.40
44729;DHT22;30457;53.590;9.922;2023-04-03T10:54:23;14.20;36.10
44729;DHT22;30457;53.590;9.922;2023-04-03T10:59:18;14.30;35.50
44729;DHT22;30457;53.590;9.922;2023-04-03T11:03:46;14.40;35.60
44729;DHT22;30457;53.590;9.922;2023-04-03T11:08:28;14.40;35.40
44729;DHT22;30457;53.590;9.922;2023-04-03T11:13:20;14.40;34.50
44729;DHT22;30457;53.590;9.922;2023-04-03T11:18:00;14.30;33.60
44729;DHT22;30457;53.590;9.922;2023-04-03T11:22:51;14.40;35.40
44729;DHT22;30457;53.590;9.922;2023-04-03T11:27:22;14.50;34.90
44729;DHT22;30457;53.590;9.922;2023-04-03T11:41:07;14.90;34.10
44729;DHT22;30457;53.590;9.922;2023-04-03T11:59:52;15.00;32.40
44729;DHT22;30457;53.590;9.922;2023-04-03T12:04:19;14.90;33.30
44729;DHT22;30457;53.590;9.922;2023-04-03T12:08:50;14.60;33.10
44729;DHT22;30457;53.590;9.922;2023-04-03T12:13:18;14.40;32.60
44729;DHT22;30457;53.590;9.922;2023-04-03T12:17:44;14.30;33.40
44729;DHT22;30457;53.590;9.922;2023-04-03T12:22:15;14.20;34.20
44729;DHT22;30457;53.590;9.922;2023-04-03T12:26:51;14.10;33.60
44729;DHT22;30457;53.590;9.922;2023-04-03T12:31:40;14.00;33.90
44729;DHT22;30457;53.590;9.922;2023-04-03T12:36:28;13.90;33.10
44729;DHT22;30457;53.590;9.922;2023-04-03T12:45:46;13.90;34.80
44729;DHT22;30457;53.590;9.922;2023-04-03T12:50:24;14.10;34.30
44729;DHT22;30457;53.590;9.922;2023-04-03T12:54:52;14.30;34.70
44729;DHT22;30457;53.590;9.922;2023-04-03T12:59:26;14.60;33.80
44729;DHT22;30457;53.590;9.922;2023-04-03T13:03:54;15.00;33.80
44729;DHT22;30457;53.590;9.922;2023-04-03T13:08:20;15.30;33.30
44729;DHT22;30457;53.590;9.922;2023-04-03T13:12:58;15.50;33.30
44729;DHT22;30457;53.590;9.922;2023-04-03T13:17:25;15.80;32.20
44729;DHT22;30457;53.590;9.922;2023-04-03T13:22:01;16.00;32.20
44729;DHT22;30457;53.590;9.922;2023-04-03T13:26:30;16.10;31.70
44729;DHT22;30457;53.590;9.922;2023-04-03T13:35:40;16.40;31.50
44729;DHT22;30457;53.590;9.922;2023-04-03T13:44:35;16.50;31.00
44729;DHT22;30457;53.590;9.922;2023-04-03T13:49:18;16.60;31.40
44729;DHT22;30457;53.590;9.922;2023-04-03T13:53:48;16.70;30.70
44729;DHT22;30457;53.590;9.922;2023-04-03T14:02:39;16.80;29.00
44729;DHT22;30457;53.590;9.922;2023-04-03T14:07:06;16.70;28.70
44729;DHT22;30457;53.590;9.922;2023-04-03T14:11:31;16.50;28.30
44729;DHT22;30457;53.590;9.922;2023-04-03T14:15:59;16.10;28.90
44729;DHT22;30457;53.590;9.922;2023-04-03T14:20:27;15.90;29.40
44729;DHT22;30457;53.590;9.922;2023-04-03T14:24:53;15.80;30.40
44729;DHT22;30457;53.590;9.922;2023-04-03T14:29:20;15.90;31.50
44729;DHT22;30457;53.590;9.922;2023-04-03T14:33:46;16.10;30.80
44729;DHT22;30457;53.590;9.922;2023-04-03T14:38:29;16.30;30.70
44729;DHT22;30457;53.590;9.922;2023-04-03T14:42:55;16.50;29.40
44729;DHT22;30457;53.590;9.922;2023-04-03T14:47:27;16.50;30.00
44729;DHT22;30457;53.590;9.922;2023-04-03T14:51:56;16.70;30.60
44729;DHT22;30457;53.590;9.922;2023-04-03T14:56:25;16.80;30.50
44729;DHT22;30457;53.590;9.922;2023-04-03T15:00:52;17.00;30.30
44729;DHT22;30457;53.590;9.922;2023-04-03T15:05:17;17.00;29.70
44729;DHT22;30457;53.590;9.922;2023-04-03T15:09:44;16.90;29.60
44729;DHT22;30457;53.590;9.922;2023-04-03T15:14:10;16.70;29.30
44729;DHT22;30457;53.590;9.922;2023-04-03T15:18:37;16.60;29.00
44729;DHT22;30457;53.590;9.922;2023-04-03T15:23:03;16.40;29.50
44729;DHT22;30457;53.590;9.922;2023-04-03T15:27:30;16.30;29.50
44729;DHT22;30457;53.590;9.922;2023-04-03T15:31:55;16.10;29.60
44729;DHT22;30457;53.590;9.922;2023-04-03T15:36:21;16.00;30.20
44729;DHT22;30457;53.590;9.922;2023-04-03T15:40:47;16.00;30.30
44729;DHT22;30457;53.590;9.922;2023-04-03T15:45:12;16.00;30.30
44729;DHT22;30457;53.590;9.922;2023-04-03T15:49:38;15.90;30.00
44729;DHT22;30457;53.590;9.922;2023-04-03T15:54:04;15.90;30.20
44729;DHT22;30457;53.590;9.922;2023-04-03T15:58:30;15.70;30.00
44729;DHT22;30457;53.590;9.922;2023-04-03T16:02:59;15.60;29.80
44729;DHT22;30457;53.590;9.922;2023-04-03T16:07:26;15.50;30.00
44729;DHT22;30457;53.590;9.922;2023-04-03T16:11:52;15.40;30.40
44729;DHT22;30457;53.590;9.922;2023-04-03T16:16:18;15.50;30.90
44729;DHT22;30457;53.590;9.922;2023-04-03T16:20:43;15.60;31.50
44729;DHT22;30457;53.590;9.922;2023-04-03T16:25:09;15.80;31.20
44729;DHT22;30457;53.590;9.922;2023-04-03T16:29:35;16.00;30.70
44729;DHT22;30457;53.590;9.922;2023-04-03T16:34:01;16.10;30.50
44729;DHT22;30457;53.590;9.922;2023-04-03T16:38:27;16.10;30.40
44729;DHT22;30457;53.590;9.922;2023-04-03T16:42:53;16.00;30.00
44729;DHT22;30457;53.590;9.922;2023-04-03T16:47:18;15.80;30.30
44729;DHT22;30457;53.590;9.922;2023-04-03T16:51:44;15.50;30.20
44729;DHT22;30457;53.590;9.922;2023-04-03T16:56:10;15.30;30.60
44729;DHT22;30457;53.590;9.922;2023-04-03T17:00:36;15.10;31.00
44729;DHT22;30457;53.590;9.922;2023-04-03T17:05:03;14.90;31.20
44729;DHT22;30457;53.590;9.922;2023-04-03T17:09:28;14.70;32.20
44729;DHT22;30457;53.590;9.922;2023-04-03T17:13:54;14.60;31.70
44729;DHT22;30457;53.590;9.922;2023-04-03T17:18:20;14.40;31.90
44729;DHT22;30457;53.590;9.922;2023-04-03T17:22:46;14.30;32.40
44729;DHT22;30457;53.590;9.922;2023-04-03T17:27:11;14.20;32.40
44729;DHT22;30457;53.590;9.922;2023-04-03T17:31:37;14.10;32.40
44729;DHT22;30457;53.590;9.922;2023-04-03T17:36:04;14.00;32.50
44729;DHT22;30457;53.590;9.922;2023-04-03T17:40:29;13.80;32.70
44729;DHT22;30457;53.590;9.922;2023-04-03T17:44:55;13.70;32.90
44729;DHT22;30457;53.590;9.922;2023-04-03T17:49:21;13.50;32.90
44729;DHT22;30457;53.590;9.922;2023-04-03T17:53:47;13.20;32.80
44729;DHT22;30457;53.590;9.922;2023-04-03T17:58:13;13.10;33.50
44729;DHT22;30457;53.590;9.922;2023-04-03T18:02:38;12.90;33.50
44729;DHT22;30457;53.590;9.922;2023-04-03T18:07:05;12.70;33.60
44729;DHT22;30457;53.590;9.922;2023-04-03T18:11:34;12.50;33.80
44729;DHT22;30457;53.590;9.922;2023-04-03T18:16:00;12.40;34.10
44729;DHT22;30457;53.590;9.922;2023-04-03T18:20:25;12.20;33.80
44729;DHT22;30457;53.590;9.922;2023-04-03T18:24:52;12.00;33.80
44729;DHT22;30457;53.590;9.922;2023-04-03T18:29:18;11.90;34.00
44729;DHT22;30457;53.590;9.922;2023-04-03T18:33:44;11.80;34.60
44729;DHT22;30457;53.590;9.922;2023-04-03T18:38:10;11.70;34.60
44729;DHT22;30457;53.590;9.922;2023-04-03T18:42:35;11.60;34.90
44729;DHT22;30457;53.590;9.922;2023-04-03T18:47:04;11.50;35.10
44729;DHT22;30457;53.590;9.922;2023-04-03T18:51:29;11.40;35.10
44729;DHT22;30457;53.590;9.922;2023-04-03T18:55:55;11.40;35.50
44729;DHT22;30457;53.590;9.922;2023-04-03T19:00:21;11.30;35.30
44729;DHT22;30457;53.590;9.922;2023-04-03T19:04:46;11.20;35.30
44729;DHT22;30457;53.590;9.922;2023-04-03T19:09:12;11.10;35.70
44729;DHT22;30457;53.590;9.922;2023-04-03T19:13:38;11.00;35.60
44729;DHT22;30457;53.590;9.922;2023-04-03T19:18:03;10.90;35.80
44729;DHT22;30457;53.590;9.922;2023-04-03T19:22:29;10.80;36.20
44729;DHT22;30457;53.590;9.922;2023-04-03T19:26:55;10.70;36.40
44729;DHT22;30457;53.590;9.922;2023-04-03T19:31:21;10.70;36.50
44729;DHT22;30457;53.590;9.922;2023-04-03T19:35:47;10.60;36.70
44729;DHT22;30457;53.590;9.922;2023-04-03T19:40:13;10.50;36.80
44729;DHT22;30457;53.590;9.922;2023-04-03T19:44:38;10.40;36.90
44729;DHT22;30457;53.590;9.922;2023-04-03T19:49:04;10.30;37.20
44729;DHT22;30457;53.590;9.922;2023-04-03T19:53:31;10.20;37.00
44729;DHT22;30457;53.590;9.922;2023-04-03T19:57:58;10.10;37.20
44729;DHT22;30457;53.590;9.922;2023-04-03T20:02:24;10.00;37.30
44729;DHT22;30457;53.590;9.922;2023-04-03T20:06:49;10.00;37.60
44729;DHT22;30457;53.590;9.922;2023-04-03T20:11:15;9.80;37.60
44729;DHT22;30457;53.590;9.922;2023-04-03T20:15:42;9.70;38.00
44729;DHT22;30457;53.590;9.922;2023-04-03T20:20:09;9.70;38.30
44729;DHT22;30457;53.590;9.922;2023-04-03T20:24:34;9.60;38.40
44729;DHT22;30457;53.590;9.922;2023-04-03T20:29:01;9.50;38.40
44729;DHT22;30457;53.590;9.922;2023-04-03T20:33:27;9.40;38.60
44729;DHT22;30457;53.590;9.922;2023-04-03T20:37:53;9.40;38.80
44729;DHT22;30457;53.590;9.922;2023-04-03T20:42:18;9.30;38.60
44729;DHT22;30457;53.590;9.922;2023-04-03T20:46:44;9.20;38.80
44729;DHT22;30457;53.590;9.922;2023-04-03T20:51:16;9.10;39.10
44729;DHT22;30457;53.590;9.922;2023-04-03T20:55:59;9.00;39.40
44729;DHT22;30457;53.590;9.922;2023-04-03T21:00:25;8.90;39.30
44729;DHT22;30457;53.590;9.922;2023-04-03T21:04:54;8.90;39.50
44729;DHT22;30457;53.590;9.922;2023-04-03T21:19:27;8.60;40.00
44729;DHT22;30457;53.590;9.922;2023-04-03T21:23:53;8.50;40.10
44729;DHT22;30457;53.590;9.922;2023-04-03T21:28:19;8.50;40.20
44729;DHT22;30457;53.590;9.922;2023-04-03T21:32:46;8.40;40.10
44729;DHT22;30457;53.590;9.922;2023-04-03T21:37:11;8.30;40.00
44729;DHT22;30457;53.590;9.922;2023-04-03T21:41:37;8.20;39.90
44729;DHT22;30457;53.590;9.922;2023-04-03T21:46:03;8.10;40.00
44729;DHT22;30457;53.590;9.922;2023-04-03T21:50:29;8.10;40.10
44729;DHT22;30457;53.590;9.922;2023-04-03T21:54:56;8.00;39.90
44729;DHT22;30457;53.590;9.922;2023-04-03T21:59:21;7.90;39.60
44729;DHT22;30457;53.590;9.922;2023-04-03T22:03:47;7.80;39.70
44729;DHT22;30457;53.590;9.922;2023-04-03T22:08:13;7.70;40.10
44729;DHT22;30457;53.590;9.922;2023-04-03T22:12:39;7.70;40.50
44729;DHT22;30457;53.590;9.922;2023-04-03T22:17:04;7.60;40.50
44729;DHT22;30457;53.590;9.922;2023-04-03T22:21:31;7.50;40.70
44729;DHT22;30457;53.590;9.922;2023-04-03T22:26:07;7.50;40.70
44729;DHT22;30457;53.590;9.922;2023-04-03T22:30:33;7.40;40.80
44729;DHT22;30457;53.590;9.922;2023-04-03T22:34:58;7.30;40.80
44729;DHT22;30457;53.590;9.922;2023-04-03T22:39:24;7.30;40.90
44729;DHT22;30457;53.590;9.922;2023-04-03T22:43:50;7.20;41.20
44729;DHT22;30457;53.590;9.922;2023-04-03T22:48:16;7.10;41.50
44729;DHT22;30457;53.590;9.922;2023-04-03T22:52:41;7.20;41.50
44729;DHT22;30457;53.590;9.922;2023-04-03T22:57:07;7.00;41.40
44729;DHT22;30457;53.590;9.922;2023-04-03T23:01:34;7.00;41.50
44729;DHT22;30457;53.590;9.922;2023-04-03T23:05:59;6.90;41.90
44729;DHT22;30457;53.590;9.922;2023-04-03T23:10:28;6.90;41.90
44729;DHT22;30457;53.590;9.922;2023-04-03T23:14:54;6.90;41.90
44729;DHT22;30457;53.590;9.922;2023-04-03T23:19:19;6.80;42.10
44729;DHT22;30457;53.590;9.922;2023-04-03T23:23:45;6.70;42.20
44729;DHT22;30457;53.590;9.922;2023-04-03T23:28:10;6.70;42.20
44729;DHT22;30457;53.590;9.922;2023-04-03T23:32:36;6.70;42.30
44729;DHT22;30457;53.590;9.922;2023-04-03T23:37:02;6.60;42.50
44729;DHT22;30457;53.590;9.922;2023-04-03T23:41:27;6.60;42.70
44729;DHT22;30457;53.590;9.922;2023-04-03T23:45:53;6.50;42.60
44729;DHT22;30457;53.590;9.922;2023-04-03T23:50:19;6.50;42.70
44729;DHT22;30457;53.590;9.922;2023-04-03T23:54:45;6.50;42.60
44729;DHT22;30457;53.590;9.922;2023-04-03T23:59:11;6.40;42.90
